Time;durP1;ratioP1;P1;durP2;ratioP2;P2;SDS_P1;SDS_P2;PMS_P1;PMS_P2;Temp;Humidity;BMP_temperature;BMP_pressure;BME280_temperature;BME280_humidity;BME280_pressure;Samples;Min_cycle;Max_cycle;Signal;HPM_P1;HPM_P2
2021/11/10 00:00:15;;;;;;;20.98;9.65;;;5.10;93.00;;;;;;5053144;28;20078;-77
2021/11/10 00:02:42;;;;;;;24.55;9.57;;;5.10;93.00;;;;;;5052774;28;20021;-76
2021/11/10 00:05:08;;;;;;;21.23;9.40;;;5.00;93.00;;;;;;5054069;28;20025;-77
2021/11/10 00:07:34;;;;;;;23.45;10.75;;;5.00;92.90;;;;;;5036309;28;20037;-76
2021/11/10 00:10:00;;;;;;;19.38;9.45;;;5.00;92.90;;;;;;5052168;28;20494;-76
2021/11/10 00:12:26;;;;;;;21.67;9.63;;;5.00;92.90;;;;;;5049771;28;20068;-77
2021/11/10 00:14:52;;;;;;;23.20;10.02;;;4.90;92.90;;;;;;5050125;28;20044;-77
2021/11/10 00:17:18;;;;;;;25.25;10.80;;;4.90;92.90;;;;;;5050674;28;20049;-77
2021/11/10 00:19:43;;;;;;;18.75;9.60;;;4.90;92.90;;;;;;5052489;28;20622;-76
2021/11/10 00:22:09;;;;;;;23.13;10.55;;;4.90;92.90;;;;;;5052294;28;20029;-76
2021/11/10 00:24:34;;;;;;;19.63;10.15;;;4.90;92.90;;;;;;5053689;28;20048;-77
2021/11/10 00:27:00;;;;;;;21.83;10.13;;;4.90;92.90;;;;;;5032763;28;20025;-77
2021/11/10 00:29:26;;;;;;;19.73;9.60;;;4.80;92.90;;;;;;5051810;28;20033;-76
2021/11/10 00:31:51;;;;;;;21.10;11.00;;;4.80;93.00;;;;;;5052134;28;20064;-77
2021/11/10 00:34:17;;;;;;;22.73;10.35;;;4.80;93.00;;;;;;5053063;28;20036;-76
2021/11/10 00:36:44;;;;;;;20.65;9.75;;;4.70;93.00;;;;;;5051844;28;20108;-77
2021/11/10 00:39:10;;;;;;;22.98;10.13;;;4.70;93.10;;;;;;5053542;28;20021;-76
2021/11/10 00:41:36;;;;;;;22.75;10.93;;;4.70;93.10;;;;;;5053509;28;20067;-76
2021/11/10 00:44:02;;;;;;;16.25;8.88;;;4.70;93.10;;;;;;5051548;28;20032;-76
2021/11/10 00:46:31;;;;;;;21.95;9.98;;;4.70;93.10;;;;;;5050225;28;20044;-77
2021/11/10 00:48:58;;;;;;;20.83;9.90;;;4.70;93.20;;;;;;5051094;28;20028;-77
2021/11/10 00:51:24;;;;;;;22.70;9.98;;;4.70;93.10;;;;;;5031647;28;20031;-76
2021/11/10 00:53:50;;;;;;;19.83;9.27;;;4.70;93.20;;;;;;5050631;28;20041;-76
2021/11/10 00:56:16;;;;;;;26.30;10.07;;;4.70;93.20;;;;;;5051714;28;20512;-76
2021/11/10 00:58:42;;;;;;;21.02;9.70;;;4.60;93.20;;;;;;5052465;28;20025;-76
2021/11/10 01:01:08;;;;;;;20.85;9.07;;;4.70;93.20;;;;;;5052012;28;20435;-76
2021/11/10 01:03:34;;;;;;;20.15;8.80;;;4.60;93.10;;;;;;5052083;28;20051;-76
2021/11/10 01:05:59;;;;;;;19.38;9.15;;;4.60;93.10;;;;;;5052129;28;20489;-76
2021/11/10 01:08:26;;;;;;;22.35;9.88;;;4.60;93.10;;;;;;5051551;28;20037;-76
2021/11/10 01:10:53;;;;;;;21.67;10.02;;;4.60;93.10;;;;;;5053092;28;20029;-76
2021/11/10 01:13:20;;;;;;;22.25;9.57;;;4.60;93.20;;;;;;5051509;28;20025;-77
2021/11/10 01:15:46;;;;;;;19.73;9.60;;;4.60;93.20;;;;;;5052160;28;20117;-76
2021/11/10 01:18:12;;;;;;;22.75;11.15;;;4.50;93.10;;;;;;5052582;28;20029;-76
2021/11/10 01:20:38;;;;;;;19.95;10.55;;;4.50;93.10;;;;;;5051613;28;20036;-76
2021/11/10 01:23:04;;;;;;;20.08;10.00;;;4.50;93.10;;;;;;5051773;28;20025;-76
2021/11/10 01:25:30;;;;;;;24.98;9.88;;;4.50;93.20;;;;;;5052588;28;20043;-76
2021/11/10 01:27:55;;;;;;;20.75;9.65;;;4.40;93.20;;;;;;5051187;28;20468;-76
2021/11/10 01:30:22;;;;;;;19.38;9.82;;;4.50;93.20;;;;;;5052551;28;20110;-77
2021/11/10 01:32:49;;;;;;;27.88;9.98;;;4.40;93.20;;;;;;5032111;28;20489;-77
2021/11/10 01:35:16;;;;;;;17.98;9.75;;;4.50;93.20;;;;;;5050915;28;20086;-76
2021/11/10 01:37:42;;;;;;;16.92;9.10;;;4.40;93.20;;;;;;5052371;28;20051;-76
2021/11/10 01:40:10;;;;;;;19.17;9.63;;;4.40;93.20;;;;;;5051264;28;20751;-76
2021/11/10 01:42:40;;;;;;;21.15;10.40;;;4.40;93.20;;;;;;5031955;28;20040;-76
2021/11/10 01:45:07;;;;;;;21.17;9.88;;;4.40;93.20;;;;;;5052643;28;20041;-76
2021/11/10 01:47:33;;;;;;;22.90;9.45;;;4.40;93.20;;;;;;5052554;28;20060;-76
2021/11/10 01:49:59;;;;;;;19.80;10.40;;;4.40;93.20;;;;;;5051151;28;20039;-76
2021/11/10 01:52:24;;;;;;;24.90;11.25;;;4.40;93.20;;;;;;5051105;28;20788;-76
2021/11/10 01:54:51;;;;;;;19.17;10.07;;;4.30;93.20;;;;;;5052153;28;20040;-76
2021/11/10 01:57:17;;;;;;;18.88;10.57;;;4.30;93.20;;;;;;5050834;28;20025;-77
2021/11/10 01:59:49;;;;;;;18.40;10.35;;;4.30;93.20;;;;;;5052350;28;20032;-77
2021/11/10 02:02:27;;;;;;;21.40;10.60;;;4.30;93.20;;;;;;5052250;28;20035;-77
2021/11/10 02:04:52;;;;;;;16.85;9.90;;;4.30;93.20;;;;;;5051902;28;20052;-77
2021/11/10 02:07:20;;;;;;;23.60;11.23;;;4.30;93.20;;;;;;5050509;28;20102;-77
2021/11/10 02:09:47;;;;;;;22.23;11.07;;;4.30;93.20;;;;;;5050771;28;20033;-77
2021/11/10 02:12:13;;;;;;;27.48;11.20;;;4.30;93.20;;;;;;5032969;28;20116;-76
2021/11/10 02:14:39;;;;;;;19.77;11.48;;;4.30;93.30;;;;;;5050732;28;20025;-76
2021/11/10 02:17:07;;;;;;;19.33;10.85;;;4.20;93.20;;;;;;5051773;28;20425;-76
2021/11/10 02:19:34;;;;;;;23.88;11.68;;;4.20;93.30;;;;;;5050772;28;20513;-76
2021/11/10 02:22:01;;;;;;;23.50;11.30;;;4.30;93.30;;;;;;5051877;28;20111;-76
2021/11/10 02:24:31;;;;;;;23.17;11.45;;;4.20;93.20;;;;;;5050448;28;20473;-76
2021/11/10 02:26:57;;;;;;;23.05;11.73;;;4.20;93.30;;;;;;5050615;28;20033;-77
2021/11/10 02:29:26;;;;;;;25.52;12.18;;;4.20;93.30;;;;;;5050265;28;20025;-77
2021/11/10 02:31:53;;;;;;;25.40;10.75;;;4.20;93.30;;;;;;5050017;28;20049;-77
2021/11/10 02:34:19;;;;;;;20.25;10.90;;;4.20;93.30;;;;;;5050053;28;20033;-77
2021/11/10 02:36:45;;;;;;;23.95;11.27;;;4.20;93.40;;;;;;5052033;28;20405;-77
2021/11/10 02:39:16;;;;;;;23.60;10.88;;;4.10;93.40;;;;;;5050857;28;20075;-76
2021/11/10 02:41:46;;;;;;;21.58;10.88;;;4.10;93.40;;;;;;5050182;28;20021;-77
2021/11/10 02:44:12;;;;;;;21.45;11.15;;;4.10;93.40;;;;;;5050213;28;20029;-77
2021/11/10 02:46:38;;;;;;;19.50;10.63;;;4.10;93.30;;;;;;5052111;28;20037;-76
2021/11/10 02:49:04;;;;;;;20.42;10.60;;;4.10;93.30;;;;;;5050434;28;20036;-77
2021/11/10 02:51:30;;;;;;;30.00;12.23;;;4.10;93.30;;;;;;5051521;28;20037;-76
2021/11/10 02:53:55;;;;;;;23.65;11.90;;;4.10;93.30;;;;;;5051407;28;20054;-77
2021/11/10 02:56:21;;;;;;;21.65;10.77;;;4.00;93.20;;;;;;5050698;28;20033;-76
2021/11/10 02:58:47;;;;;;;21.48;10.50;;;4.00;93.30;;;;;;5026782;28;20029;-77
2021/11/10 03:01:13;;;;;;;19.60;10.25;;;4.00;93.30;;;;;;5050123;28;20017;-76
2021/11/10 03:03:39;;;;;;;17.67;9.82;;;4.00;93.30;;;;;;5050280;28;20462;-76
2021/11/10 03:06:05;;;;;;;21.60;11.85;;;4.00;93.30;;;;;;5049930;28;20036;-76
2021/11/10 03:08:31;;;;;;;26.35;12.07;;;4.00;93.30;;;;;;5049845;28;20554;-77
2021/11/10 03:10:56;;;;;;;25.55;11.80;;;4.00;93.30;;;;;;5050027;28;20875;-76
2021/11/10 03:13:22;;;;;;;27.23;11.45;;;4.00;93.40;;;;;;5051294;28;20040;-76
2021/11/10 03:15:49;;;;;;;23.48;10.63;;;4.00;93.40;;;;;;5033667;28;20439;-76
2021/11/10 03:18:15;;;;;;;24.13;11.43;;;3.90;93.40;;;;;;5051287;28;20029;-76
2021/11/10 03:20:41;;;;;;;21.98;11.02;;;3.90;93.40;;;;;;5048172;28;20559;-76
2021/11/10 03:23:07;;;;;;;25.38;11.68;;;3.90;93.40;;;;;;5051028;28;20025;-77
2021/11/10 03:25:33;;;;;;;22.67;10.88;;;4.00;93.50;;;;;;5049838;28;20505;-77
2021/11/10 03:27:59;;;;;;;22.50;10.75;;;3.90;93.40;;;;;;5050051;28;20040;-76
2021/11/10 03:30:25;;;;;;;22.77;11.38;;;3.90;93.40;;;;;;5050457;28;20049;-77
2021/11/10 03:32:51;;;;;;;18.48;10.07;;;3.90;93.40;;;;;;5049772;28;20563;-76
2021/11/10 03:35:21;;;;;;;26.13;11.40;;;3.90;93.50;;;;;;5049622;28;20039;-76
2021/11/10 03:37:46;;;;;;;25.40;10.73;;;3.90;93.50;;;;;;5049655;28;20108;-77
2021/11/10 03:40:12;;;;;;;25.63;10.75;;;3.90;93.50;;;;;;5049099;28;20265;-76
2021/11/10 03:42:39;;;;;;;21.75;11.02;;;3.90;93.70;;;;;;5031734;28;20029;-76
2021/11/10 03:45:05;;;;;;;20.75;10.27;;;3.80;93.40;;;;;;5047528;28;20029;-76
2021/11/10 03:47:31;;;;;;;19.50;9.80;;;3.80;93.40;;;;;;5046629;28;20025;-76
2021/11/10 03:49:57;;;;;;;23.67;12.13;;;3.80;93.50;;;;;;5047923;28;20040;-76
2021/11/10 03:52:23;;;;;;;20.13;10.73;;;3.80;93.50;;;;;;5051505;28;20055;-76
2021/11/10 03:54:49;;;;;;;22.55;10.73;;;3.80;93.50;;;;;;5052135;28;20108;-76
2021/11/10 03:57:14;;;;;;;20.35;11.05;;;3.80;93.50;;;;;;5051540;28;20029;-76
2021/11/10 03:59:40;;;;;;;20.65;9.60;;;3.80;93.50;;;;;;5051741;28;20036;-76
2021/11/10 04:02:08;;;;;;;20.00;11.32;;;3.80;93.50;;;;;;5051342;28;20028;-76
2021/11/10 04:04:33;;;;;;;17.85;10.00;;;3.80;93.50;;;;;;5051461;28;20508;-76
2021/11/10 04:06:59;;;;;;;19.50;9.25;;;3.80;93.60;;;;;;5054007;28;20033;-76
2021/11/10 04:09:26;;;;;;;20.80;10.43;;;3.80;93.60;;;;;;5032923;28;20041;-76
2021/11/10 04:11:51;;;;;;;28.02;12.27;;;3.80;93.60;;;;;;5030552;28;20042;-76
2021/11/10 04:14:17;;;;;;;17.38;10.25;;;3.80;93.60;;;;;;5052902;28;20044;-76
2021/11/10 04:16:43;;;;;;;17.88;10.93;;;3.80;93.60;;;;;;5052708;28;20116;-76
2021/11/10 04:19:09;;;;;;;25.42;11.18;;;3.80;93.60;;;;;;5052691;28;20105;-76
2021/11/10 04:21:35;;;;;;;20.23;10.38;;;3.80;93.60;;;;;;5053930;28;20091;-76
2021/11/10 04:24:01;;;;;;;23.67;10.57;;;3.80;93.70;;;;;;5053945;28;20036;-76
2021/11/10 04:26:29;;;;;;;21.65;10.88;;;3.70;93.70;;;;;;5052388;28;20029;-76
2021/11/10 04:28:56;;;;;;;27.03;10.53;;;3.70;93.70;;;;;;5054157;28;20040;-76
2021/11/10 04:31:22;;;;;;;21.27;10.60;;;3.70;93.70;;;;;;5051359;28;20621;-76
2021/11/10 04:33:48;;;;;;;26.45;11.75;;;3.60;93.70;;;;;;5036251;28;20087;-76
2021/11/10 04:36:14;;;;;;;21.38;11.07;;;3.70;93.70;;;;;;5052294;28;20025;-76
2021/11/10 04:38:40;;;;;;;21.58;11.75;;;3.70;93.70;;;;;;5052442;28;20115;-76
2021/11/10 04:41:06;;;;;;;21.55;11.57;;;3.60;93.70;;;;;;5053472;28;20116;-76
2021/11/10 04:43:32;;;;;;;22.80;11.30;;;3.60;93.80;;;;;;5053501;28;20040;-76
2021/11/10 04:46:22;;;;;;;26.05;12.40;;;3.60;93.80;;;;;;5052342;28;20025;-76
2021/11/10 04:48:44;;;;;;;18.27;10.70;;;3.60;93.80;;;;;;5050659;28;20037;-76
2021/11/10 04:51:11;;;;;;;26.23;11.75;;;3.50;93.80;;;;;;5052188;28;20036;-76
2021/11/10 04:53:39;;;;;;;27.00;11.27;;;3.50;93.80;;;;;;5034902;28;20045;-76
2021/11/10 04:56:05;;;;;;;21.77;11.15;;;3.60;93.80;;;;;;5051458;28;20036;-76
2021/11/10 04:58:32;;;;;;;20.73;11.77;;;3.50;93.70;;;;;;5051734;28;20033;-76
2021/11/10 05:00:58;;;;;;;18.45;10.65;;;3.50;93.70;;;;;;5052410;28;20509;-76
2021/11/10 05:03:24;;;;;;;22.77;11.32;;;3.50;93.70;;;;;;5052001;28;20056;-76
2021/11/10 05:05:50;;;;;;;23.00;12.00;;;3.50;93.70;;;;;;5053237;28;20029;-77
2021/11/10 05:08:16;;;;;;;21.08;10.85;;;3.50;93.70;;;;;;5035017;28;20044;-76
2021/11/10 05:10:42;;;;;;;19.92;11.35;;;3.40;93.60;;;;;;5051453;28;20374;-76
2021/11/10 05:13:08;;;;;;;20.95;11.98;;;3.40;93.60;;;;;;5052520;28;20507;-76
2021/11/10 05:15:34;;;;;;;22.63;11.50;;;3.40;93.60;;;;;;5052532;28;21710;-77
2021/11/10 05:18:00;;;;;;;23.20;10.88;;;3.40;93.60;;;;;;5052649;28;20079;-76
2021/11/10 05:20:26;;;;;;;20.90;10.50;;;3.40;93.60;;;;;;5051411;28;20040;-76
2021/11/10 05:22:52;;;;;;;23.15;11.13;;;3.40;93.70;;;;;;5052321;28;20033;-76
2021/11/10 05:25:18;;;;;;;20.25;10.73;;;3.40;93.70;;;;;;5051275;28;20033;-76
2021/11/10 05:27:44;;;;;;;21.52;11.35;;;3.30;93.60;;;;;;5051578;28;20036;-76
2021/11/10 05:30:12;;;;;;;21.85;11.05;;;3.40;93.60;;;;;;5050285;28;20029;-76
2021/11/10 05:32:38;;;;;;;19.70;10.90;;;3.30;93.50;;;;;;5034803;28;20045;-76
2021/11/10 05:35:05;;;;;;;25.45;11.38;;;3.30;93.50;;;;;;5051280;28;20044;-76
2021/11/10 05:37:31;;;;;;;16.17;9.70;;;3.30;93.60;;;;;;5051245;28;20041;-76
2021/11/10 05:39:57;;;;;;;21.48;10.45;;;3.20;93.60;;;;;;5050712;28;20028;-76
2021/11/10 05:42:25;;;;;;;23.15;11.38;;;3.20;93.60;;;;;;5050524;28;20025;-79
2021/11/10 05:44:52;;;;;;;21.15;11.45;;;3.20;93.60;;;;;;5052487;28;20025;-79
2021/11/10 05:47:17;;;;;;;25.48;10.70;;;3.20;93.60;;;;;;5036154;28;20032;-79
2021/11/10 05:49:43;;;;;;;21.33;11.05;;;3.20;93.60;;;;;;5052847;28;20029;-79
2021/11/10 05:52:10;;;;;;;24.60;11.43;;;3.20;93.50;;;;;;5036245;28;20112;-79
2021/11/10 05:54:37;;;;;;;23.50;11.63;;;3.10;93.50;;;;;;5053823;28;20459;-79
2021/11/10 05:57:04;;;;;;;21.65;10.82;;;3.10;93.50;;;;;;5052576;28;20024;-79
2021/11/10 05:59:29;;;;;;;20.17;10.45;;;3.10;93.50;;;;;;5052976;28;20032;-79
2021/11/10 06:01:56;;;;;;;19.02;10.90;;;3.10;93.60;;;;;;5049909;28;20124;-79
2021/11/10 06:04:22;;;;;;;19.50;10.20;;;3.10;93.60;;;;;;5049587;28;20079;-79
2021/11/10 06:06:48;;;;;;;22.50;10.30;;;3.10;93.50;;;;;;5050381;28;20037;-79
2021/11/10 06:09:13;;;;;;;19.65;10.73;;;3.00;93.50;;;;;;5050630;28;20033;-79
2021/11/10 06:11:39;;;;;;;20.92;10.88;;;3.00;93.50;;;;;;5048767;28;20037;-79
2021/11/10 06:14:05;;;;;;;21.80;10.20;;;3.00;93.50;;;;;;5047020;28;20025;-79
2021/11/10 06:16:31;;;;;;;19.75;10.48;;;3.00;93.50;;;;;;5045657;28;20495;-79
2021/11/10 06:18:56;;;;;;;19.52;10.25;;;3.00;93.50;;;;;;5053984;28;20028;-79
2021/11/10 06:21:22;;;;;;;24.75;11.07;;;3.00;93.40;;;;;;5051637;28;20520;-79
2021/11/10 06:23:48;;;;;;;19.15;10.70;;;3.00;93.40;;;;;;5053170;28;20045;-79
2021/11/10 06:26:14;;;;;;;17.83;10.13;;;2.90;93.40;;;;;;5051598;28;20068;-79
2021/11/10 06:28:40;;;;;;;21.33;9.98;;;2.90;93.50;;;;;;5051760;28;20047;-79
2021/11/10 06:31:06;;;;;;;21.02;10.32;;;2.90;93.50;;;;;;5052216;28;20494;-79
2021/11/10 06:33:31;;;;;;;22.35;10.23;;;3.00;93.50;;;;;;5051176;28;20040;-79
2021/11/10 06:35:58;;;;;;;20.42;10.65;;;2.90;93.40;;;;;;5052787;28;20025;-79
2021/11/10 06:38:23;;;;;;;18.73;9.85;;;2.90;93.50;;;;;;5052667;28;20032;-79
2021/11/10 06:40:49;;;;;;;23.13;9.77;;;2.90;93.50;;;;;;5052078;28;20378;-79
2021/11/10 06:43:15;;;;;;;17.13;9.15;;;2.90;93.50;;;;;;5051355;28;20730;-79
2021/11/10 06:45:40;;;;;;;19.80;9.93;;;2.90;93.50;;;;;;5052468;28;20025;-79
2021/11/10 06:48:06;;;;;;;20.10;9.95;;;2.90;93.50;;;;;;5051482;28;20033;-79
2021/11/10 06:50:32;;;;;;;16.73;9.10;;;2.90;93.50;;;;;;5052405;28;20083;-79
2021/11/10 06:52:58;;;;;;;19.15;10.10;;;2.90;93.50;;;;;;5034284;28;20366;-79
2021/11/10 06:55:23;;;;;;;17.17;9.68;;;3.00;93.50;;;;;;5050863;28;20553;-79
2021/11/10 06:57:49;;;;;;;15.63;9.07;;;3.00;93.50;;;;;;5050040;28;20047;-79
2021/11/10 07:00:16;;;;;;;19.80;9.32;;;3.00;93.40;;;;;;5049605;28;20108;-79
2021/11/10 07:02:41;;;;;;;20.83;8.63;;;3.00;93.50;;;;;;5049762;28;20033;-79
2021/11/10 07:05:07;;;;;;;21.30;9.52;;;3.00;93.50;;;;;;5050537;28;21765;-79
2021/11/10 07:07:33;;;;;;;16.65;9.55;;;3.00;93.50;;;;;;5032576;28;20033;-79
2021/11/10 07:09:59;;;;;;;18.13;9.13;;;3.00;93.50;;;;;;5050739;28;20547;-80
2021/11/10 07:12:25;;;;;;;17.00;8.63;;;3.00;93.50;;;;;;5050368;28;20036;-79
2021/11/10 07:14:51;;;;;;;24.33;10.00;;;3.00;93.50;;;;;;5049561;28;20489;-79
2021/11/10 07:17:17;;;;;;;16.90;8.90;;;3.00;93.50;;;;;;5048967;28;20035;-79
2021/11/10 07:19:42;;;;;;;17.65;9.40;;;3.00;93.50;;;;;;5048956;28;20104;-79
2021/11/10 07:22:08;;;;;;;21.40;9.85;;;3.00;93.50;;;;;;5049926;28;20362;-80
2021/11/10 07:24:34;;;;;;;18.10;10.10;;;3.00;93.50;;;;;;5051120;28;20029;-79
2021/11/10 07:27:00;;;;;;;19.02;8.80;;;3.00;93.60;;;;;;5054605;28;20124;-79
2021/11/10 07:29:28;;;;;;;21.20;10.18;;;3.00;93.60;;;;;;5054698;28;20128;-79
2021/11/10 07:31:54;;;;;;;17.03;9.50;;;3.00;93.60;;;;;;5054358;28;20102;-80
2021/11/10 07:34:20;;;;;;;15.02;8.63;;;3.00;93.60;;;;;;5054403;28;20029;-79
2021/11/10 07:36:46;;;;;;;19.92;9.88;;;3.00;93.60;;;;;;5054169;28;20033;-79
2021/11/10 07:39:11;;;;;;;20.98;10.57;;;3.00;93.60;;;;;;5053808;28;20029;-79
2021/11/10 07:41:37;;;;;;;17.17;11.00;;;3.00;93.70;;;;;;5055548;28;20037;-79
2021/11/10 07:44:03;;;;;;;20.42;10.70;;;3.00;93.70;;;;;;5040446;28;20035;-80
2021/11/10 07:46:31;;;;;;;19.27;9.82;;;3.00;93.70;;;;;;5054681;28;20079;-80
2021/11/10 07:48:57;;;;;;;18.67;10.43;;;3.10;93.80;;;;;;5054255;28;20037;-80
2021/11/10 07:51:24;;;;;;;14.85;9.10;;;3.10;93.70;;;;;;5054422;28;20430;-79
2021/11/10 07:53:50;;;;;;;15.10;8.60;;;3.10;93.80;;;;;;5054448;28;20033;-79
2021/11/10 07:56:16;;;;;;;16.92;8.90;;;3.10;93.70;;;;;;5054357;28;20029;-80
2021/11/10 07:58:41;;;;;;;15.05;8.43;;;3.10;93.70;;;;;;5053499;28;20389;-80
2021/11/10 08:01:09;;;;;;;18.45;9.30;;;3.10;93.70;;;;;;5052876;28;20059;-80
2021/11/10 08:03:35;;;;;;;18.27;9.20;;;3.10;93.70;;;;;;5056820;28;20053;-79
2021/11/10 08:06:01;;;;;;;16.40;8.65;;;3.20;93.70;;;;;;5053856;28;20025;-80
2021/11/10 08:08:27;;;;;;;20.65;9.30;;;3.20;93.80;;;;;;5046281;28;20037;-79
2021/11/10 08:11:00;;;;;;;15.77;9.18;;;3.30;94.00;;;;;;5054739;28;20462;-80
2021/11/10 08:13:27;;;;;;;19.35;9.48;;;3.40;93.70;;;;;;5051344;28;20547;-80
2021/11/10 08:15:54;;;;;;;15.77;8.60;;;3.50;93.70;;;;;;5053579;28;20055;-80
2021/11/10 08:18:20;;;;;;;15.35;9.10;;;3.60;93.70;;;;;;5054750;28;20124;-80
2021/11/10 08:20:46;;;;;;;23.40;9.57;;;3.70;93.60;;;;;;5054317;28;20479;-80
2021/11/10 08:23:14;;;;;;;18.58;10.32;;;3.80;93.60;;;;;;5034216;28;20029;-80
2021/11/10 08:25:39;;;;;;;22.05;11.05;;;3.90;93.50;;;;;;5054331;28;20111;-80
2021/11/10 08:28:05;;;;;;;21.75;11.15;;;4.00;93.50;;;;;;5053281;28;20143;-80
2021/11/10 08:30:32;;;;;;;20.00;9.35;;;4.10;93.50;;;;;;5054162;28;20078;-80
2021/11/10 08:32:58;;;;;;;21.63;11.85;;;4.20;93.50;;;;;;5054161;28;20098;-80
2021/11/10 08:35:24;;;;;;;21.13;9.50;;;4.30;93.50;;;;;;5054046;28;20040;-80
2021/11/10 08:37:51;;;;;;;18.17;10.20;;;4.40;93.50;;;;;;5032473;28;20025;-80
2021/11/10 08:40:17;;;;;;;17.27;10.43;;;4.40;93.50;;;;;;5057812;28;20079;-80
2021/11/10 08:42:43;;;;;;;22.33;10.27;;;4.40;93.50;;;;;;5052725;28;20040;-80
2021/11/10 08:45:16;;;;;;;26.42;12.55;;;4.50;93.60;;;;;;5036810;28;20477;-80
2021/11/10 08:47:43;;;;;;;25.52;11.75;;;4.50;93.60;;;;;;5053047;28;20093;-80
2021/11/10 08:50:10;;;;;;;26.63;11.50;;;4.60;93.70;;;;;;5052927;28;20029;-80
2021/11/10 08:52:37;;;;;;;20.95;10.55;;;4.60;93.70;;;;;;5050431;28;20116;-79
2021/11/10 08:55:05;;;;;;;20.10;10.93;;;4.60;93.70;;;;;;5051806;28;20029;-80
2021/11/10 08:57:31;;;;;;;21.65;12.00;;;4.70;93.70;;;;;;5053721;28;20033;-77
2021/11/10 08:59:57;;;;;;;26.88;11.50;;;4.70;93.80;;;;;;5053356;28;20116;-79
2021/11/10 09:02:22;;;;;;;20.05;11.27;;;4.60;93.80;;;;;;5056962;28;20120;-80
2021/11/10 09:04:48;;;;;;;19.70;11.95;;;4.70;93.80;;;;;;5045340;28;20051;-79
2021/11/10 09:07:14;;;;;;;20.45;10.93;;;4.70;93.90;;;;;;5044518;28;20059;-79
2021/11/10 09:09:40;;;;;;;21.88;11.20;;;4.70;93.90;;;;;;5064550;28;20033;-79
2021/11/10 09:12:08;;;;;;;22.63;10.77;;;4.70;93.90;;;;;;5063444;28;20040;-79
2021/11/10 09:14:33;;;;;;;20.80;12.13;;;4.70;93.90;;;;;;5052782;28;20033;-79
2021/11/10 09:16:59;;;;;;;21.88;11.57;;;4.70;94.00;;;;;;5045891;28;20025;-79
2021/11/10 09:19:25;;;;;;;23.92;11.90;;;4.70;93.90;;;;;;5034157;28;20399;-80
2021/11/10 09:21:51;;;;;;;21.45;11.50;;;4.70;94.00;;;;;;5071591;28;20085;-80
2021/11/10 09:24:17;;;;;;;23.35;11.32;;;4.80;94.00;;;;;;5052528;28;20063;-80
2021/11/10 09:26:42;;;;;;;22.30;11.80;;;4.80;94.00;;;;;;5058608;28;20044;-79
2021/11/10 09:29:08;;;;;;;25.40;11.10;;;4.80;94.00;;;;;;5055636;28;20025;-79
2021/11/10 09:31:36;;;;;;;24.95;12.13;;;4.90;94.00;;;;;;5058069;28;20056;-79
2021/11/10 09:34:06;;;;;;;23.38;11.95;;;4.90;94.00;;;;;;5049485;28;20924;-80
2021/11/10 09:36:32;;;;;;;18.13;10.68;;;5.00;94.00;;;;;;5056184;28;20029;-80
2021/11/10 09:38:58;;;;;;;23.73;11.13;;;5.00;94.00;;;;;;5063001;28;20465;-80
2021/11/10 09:41:24;;;;;;;20.70;11.55;;;5.00;93.90;;;;;;5051737;28;20025;-80
2021/11/10 09:43:50;;;;;;;20.42;11.07;;;5.10;93.90;;;;;;5053168;28;20354;-81
2021/11/10 09:46:15;;;;;;;22.00;10.57;;;5.10;93.90;;;;;;5031946;28;20112;-80
2021/11/10 09:48:42;;;;;;;25.42;11.30;;;5.30;93.90;;;;;;5051062;28;20071;-80
2021/11/10 09:51:08;;;;;;;21.65;11.00;;;5.30;93.80;;;;;;5052133;28;20029;-80
2021/11/10 09:53:35;;;;;;;19.27;10.90;;;5.30;93.80;;;;;;5052993;28;20044;-80
2021/11/10 09:56:02;;;;;;;21.88;11.63;;;5.40;93.80;;;;;;5051312;28;20030;-80
2021/11/10 09:58:30;;;;;;;19.02;10.70;;;5.50;93.70;;;;;;5052195;28;20547;-80
2021/11/10 10:01:06;;;;;;;20.20;11.95;;;5.50;93.70;;;;;;5052521;28;20029;-80
2021/11/10 10:03:34;;;;;;;24.63;11.88;;;5.50;93.60;;;;;;5051785;28;20028;-81
2021/11/10 10:06:00;;;;;;;19.13;10.63;;;5.60;93.60;;;;;;5051903;28;20775;-81
2021/11/10 10:08:26;;;;;;;21.00;11.10;;;5.60;93.50;;;;;;5051984;28;20025;-81
2021/11/10 10:10:52;;;;;;;25.35;11.82;;;5.60;93.40;;;;;;5052575;28;20078;-80
2021/11/10 10:13:19;;;;;;;22.08;11.68;;;5.70;93.40;;;;;;5052811;28;20479;-80
2021/11/10 10:15:45;;;;;;;23.42;10.75;;;5.80;93.40;;;;;;5051621;28;20120;-80
2021/11/10 10:18:22;;;;;;;20.70;11.45;;;5.90;93.30;;;;;;5050870;28;20115;-78
2021/11/10 10:20:53;;;;;;;20.73;10.95;;;5.90;93.20;;;;;;5052195;28;20027;-78
2021/11/10 10:23:20;;;;;;;23.60;11.43;;;6.00;93.20;;;;;;5058256;28;20048;-78
2021/11/10 10:25:46;;;;;;;21.38;12.25;;;6.00;93.20;;;;;;5049997;28;20032;-78
2021/11/10 10:28:15;;;;;;;21.90;11.45;;;6.10;93.10;;;;;;5052505;28;20086;-78
2021/11/10 10:30:47;;;;;;;21.63;12.02;;;6.20;93.10;;;;;;5051689;28;20617;-78
2021/11/10 10:33:19;;;;;;;24.40;12.30;;;6.30;93.00;;;;;;5048796;28;20044;-78
2021/11/10 10:35:48;;;;;;;19.05;11.07;;;6.30;92.90;;;;;;5049343;28;20112;-78
2021/11/10 10:38:24;;;;;;;21.75;11.65;;;6.30;92.80;;;;;;5046766;28;20063;-79
2021/11/10 10:40:54;;;;;;;19.05;11.20;;;6.40;92.90;;;;;;5052302;28;20032;-78
2021/11/10 10:43:21;;;;;;;20.58;11.77;;;6.40;92.90;;;;;;5060534;28;20074;-78
2021/11/10 10:45:52;;;;;;;20.85;11.27;;;6.40;92.80;;;;;;5052104;28;20037;-79
2021/11/10 10:48:26;;;;;;;22.73;12.57;;;6.40;92.80;;;;;;5050899;28;20045;-79
2021/11/10 10:50:58;;;;;;;20.27;11.35;;;6.40;92.80;;;;;;5042105;28;20017;-76
2021/11/10 10:54:02;;;;;;;20.27;11.55;;;6.50;92.80;;;;;;5051077;28;20017;-75
2021/11/10 10:56:36;;;;;;;24.48;11.32;;;6.50;92.80;;;;;;5044544;28;20049;-76
2021/11/10 10:59:07;;;;;;;18.13;10.07;;;6.50;92.70;;;;;;5047038;28;20025;-76
2021/11/10 11:01:35;;;;;;;23.70;10.38;;;6.60;92.80;;;;;;5051155;28;20047;-76
2021/11/10 11:04:07;;;;;;;18.85;11.00;;;6.60;92.70;;;;;;5049293;28;20024;-76
2021/11/10 11:06:38;;;;;;;18.38;10.63;;;6.60;92.70;;;;;;5051161;28;20033;-75
2021/11/10 11:09:19;;;;;;;20.30;10.15;;;6.70;92.60;;;;;;5050386;28;20044;-76
2021/11/10 11:12:05;;;;;;;20.25;10.30;;;6.70;92.60;;;;;;5048020;28;20013;-76
2021/11/10 11:15:05;;;;;;;19.55;10.70;;;6.80;92.50;;;;;;5049384;28;20376;-76
2021/11/10 11:17:36;;;;;;;21.85;10.55;;;6.80;92.50;;;;;;5048988;28;20017;-76
2021/11/10 11:20:10;;;;;;;19.85;11.13;;;6.80;92.40;;;;;;5051182;28;20116;-76
2021/11/10 11:22:45;;;;;;;18.63;10.65;;;6.90;92.70;;;;;;5045028;28;20094;-78
2021/11/10 11:25:26;;;;;;;20.33;9.57;;;7.00;92.50;;;;;;5046990;28;20028;-76
2021/11/10 11:28:06;;;;;;;17.50;10.18;;;7.00;92.30;;;;;;5051676;28;20478;-76
2021/11/10 11:30:56;;;;;;;16.83;9.75;;;7.10;92.30;;;;;;5049991;28;20470;-76
2021/11/10 11:33:23;;;;;;;16.75;8.77;;;7.10;92.20;;;;;;5036878;28;20044;-76
2021/11/10 11:36:00;;;;;;;15.75;9.27;;;7.20;92.10;;;;;;5051175;28;20033;-76
2021/11/10 11:38:28;;;;;;;21.23;11.38;;;7.30;92.00;;;;;;5047646;28;20454;-76
2021/11/10 11:40:56;;;;;;;20.15;9.77;;;7.40;91.70;;;;;;5050150;28;20072;-76
2021/11/10 11:43:24;;;;;;;20.40;9.57;;;7.60;91.60;;;;;;5050823;28;20025;-76
2021/11/10 11:45:53;;;;;;;15.57;9.02;;;7.70;91.30;;;;;;5050184;28;20036;-76
2021/11/10 11:48:25;;;;;;;18.73;8.73;;;7.90;91.10;;;;;;5050844;28;20033;-76
2021/11/10 11:50:53;;;;;;;16.67;8.93;;;8.00;90.80;;;;;;5050162;28;20317;-76
2021/11/10 11:53:19;;;;;;;18.35;9.23;;;8.10;90.60;;;;;;5049997;28;20039;-75
2021/11/10 11:55:59;;;;;;;18.38;9.38;;;8.20;90.50;;;;;;5050763;28;20414;-76
2021/11/10 11:58:29;;;;;;;20.88;9.23;;;8.40;90.20;;;;;;5051082;28;20025;-75
2021/11/10 12:01:03;;;;;;;17.95;9.27;;;8.50;90.00;;;;;;5050856;28;20048;-75
2021/11/10 12:03:38;;;;;;;16.15;9.30;;;8.70;89.80;;;;;;5049685;28;20108;-75
2021/11/10 12:06:03;;;;;;;19.23;9.45;;;8.90;89.10;;;;;;5049856;28;20143;-76
2021/11/10 12:08:42;;;;;;;17.35;9.13;;;9.00;88.90;;;;;;5049123;28;20556;-75
2021/11/10 12:11:20;;;;;;;17.50;9.75;;;9.00;88.60;;;;;;5043065;28;20428;-76
2021/11/10 12:14:04;;;;;;;17.48;9.40;;;9.10;88.30;;;;;;5054879;28;20029;-75
2021/11/10 12:16:43;;;;;;;17.70;8.88;;;9.20;87.60;;;;;;5054577;28;20028;-76
2021/11/10 12:19:09;;;;;;;16.95;9.02;;;9.30;88.00;;;;;;5053078;28;20029;-75
2021/11/10 12:21:47;;;;;;;17.42;9.23;;;9.30;88.10;;;;;;5053320;28;20036;-75
2021/11/10 12:24:43;;;;;;;13.88;8.00;;;9.30;88.00;;;;;;5054473;28;20027;-76
2021/11/10 12:27:08;;;;;;;17.98;8.48;;;9.30;87.90;;;;;;5053505;28;20045;-75
2021/11/10 12:29:49;;;;;;;16.88;8.90;;;9.30;88.00;;;;;;5052445;28;20747;-75
2021/11/10 12:32:39;;;;;;;15.73;8.77;;;9.30;88.10;;;;;;5054420;28;20549;-76
2021/11/10 12:35:17;;;;;;;15.75;8.43;;;9.40;87.90;;;;;;5052208;28;20120;-75
2021/11/10 12:37:48;;;;;;;14.80;8.17;;;9.60;87.00;;;;;;5053189;28;20029;-75
2021/11/10 12:40:22;;;;;;;17.08;8.75;;;9.70;87.00;;;;;;5053763;28;20094;-75
2021/11/10 12:43:09;;;;;;;16.77;9.30;;;9.80;86.70;;;;;;5054090;28;20100;-76